Time;durP1;ratioP1;P1;durP2;ratioP2;P2;SDS_P1;SDS_P2;PMS_P1;PMS_P2;Temp;Humidity;BMP_temperature;BMP_pressure;BME280_temperature;BME280_humidity;BME280_pressure;Samples;Min_cycle;Max_cycle;Signal;HPM_P1;HPM_P2
2023/10/05 00:03:38;;;;;;;;;;;;;;;27.48;32.99;101490.16;5077263;28;1210;-32
2023/10/05 00:06:16;;;;;;;;;;;;;;;27.37;33.04;101482.41;5077103;28;1098;-33
2023/10/05 00:08:44;;;;;;;;;;;;;;;27.42;33.18;101476.50;5077041;28;1977;-34
2023/10/05 00:11:10;;;;;;;;;;;;;;;27.43;32.95;101484.41;5076928;28;1107;-37
2023/10/05 00:13:37;;;;;;;;;;;;;;;27.35;33.14;101481.72;5077155;28;1082;-33
2023/10/05 00:16:05;;;;;;;;;;;;;;;27.39;33.26;101486.59;5077180;28;1158;-31
2023/10/05 00:18:31;;;;;;;;;;;;;;;27.49;32.64;101488.31;5076777;28;1074;-34
2023/10/05 00:20:59;;;;;;;;;;;;;;;27.42;33.10;101484.59;5076698;28;1038;-31
2023/10/05 00:23:27;;;;;;;;;;;;;;;27.34;33.26;101486.25;5076703;28;1129;-28
2023/10/05 00:25:54;;;;;;;;;;;;;;;27.34;33.08;101497.06;5077168;28;1113;-30
2023/10/05 00:28:23;;;;;;;;;;;;;;;27.39;33.14;101493.88;5076495;28;1914;-29
2023/10/05 00:30:52;;;;;;;;;;;;;;;27.41;33.06;101486.44;5075294;28;1208;-31
2023/10/05 00:33:18;;;;;;;;;;;;;;;27.48;33.01;101487.47;5075566;28;2010;-28
2023/10/05 00:35:44;;;;;;;;;;;;;;;27.50;32.63;101496.25;5069660;28;1103;-33
2023/10/05 00:38:14;;;;;;;;;;;;;;;27.43;32.92;101489.81;5075471;28;1050;-29
2023/10/05 00:40:51;;;;;;;;;;;;;;;27.40;33.18;101492.88;5075258;28;1030;-30
2023/10/05 00:43:24;;;;;;;;;;;;;;;27.56;33.05;101491.19;5075970;28;1091;-31
2023/10/05 00:45:50;;;;;;;;;;;;;;;27.62;32.41;101496.78;5074794;28;1049;-27
2023/10/05 00:48:29;;;;;;;;;;;;;;;27.46;32.94;101494.88;5075096;28;2026;-32
2023/10/05 00:50:57;;;;;;;;;;;;;;;27.29;33.22;101491.34;5076215;28;1169;-32
2023/10/05 00:53:23;;;;;;;;;;;;;;;27.26;33.11;101487.09;5076335;28;1131;-33
2023/10/05 00:55:51;;;;;;;;;;;;;;;27.34;32.98;101493.53;5075332;28;1055;-32
2023/10/05 00:58:17;;;;;;;;;;;;;;;27.44;33.03;101493.38;5058629;28;1112;-31
2023/10/05 01:00:53;;;;;;;;;;;;;;;27.37;32.97;101491.34;5074403;28;1059;-30
2023/10/05 01:03:33;;;;;;;;;;;;;;;27.35;32.90;101493.38;5076151;28;1103;-30
2023/10/05 01:08:59;;;;;;;;;;;;;;;27.36;33.03;101491.53;5076507;28;1910;-32
2023/10/05 01:11:44;;;;;;;;;;;;;;;27.27;33.10;101485.25;5075206;28;1198;-31
2023/10/05 01:14:10;;;;;;;;;;;;;;;27.23;33.28;101482.03;5102900;28;1057;-30
2023/10/05 01:16:35;;;;;;;;;;;;;;;27.26;33.27;101483.53;5076438;28;1043;-31
2023/10/05 01:19:07;;;;;;;;;;;;;;;27.36;32.89;101480.72;5076262;28;1006;-34
2023/10/05 01:21:34;;;;;;;;;;;;;;;27.35;32.66;101484.41;5076067;28;1163;-30
2023/10/05 01:23:59;;;;;;;;;;;;;;;27.34;33.26;101480.03;5075566;28;1050;-30
2023/10/05 01:26:25;;;;;;;;;;;;;;;27.25;33.06;101477.31;5075979;28;1046;-31
2023/10/05 01:28:50;;;;;;;;;;;;;;;27.28;33.22;101486.94;5075958;28;1906;-30
2023/10/05 01:31:20;;;;;;;;;;;;;;;27.25;33.16;101481.88;5076149;28;1113;-31
2023/10/05 01:33:46;;;;;;;;;;;;;;;27.31;33.21;101483.06;5075996;28;983;-30
2023/10/05 01:36:12;;;;;;;;;;;;;;;27.28;33.03;101475.31;5075351;28;1010;-31
2023/10/05 01:38:39;;;;;;;;;;;;;;;27.34;32.84;101485.44;5076520;28;1170;-30
2023/10/05 01:41:05;;;;;;;;;;;;;;;27.32;33.19;101480.19;5075725;28;1248;-34
2023/10/05 01:43:31;;;;;;;;;;;;;;;27.25;32.82;101482.72;5075648;28;1143;-31
2023/10/05 01:45:56;;;;;;;;;;;;;;;27.44;32.85;101486.13;5082039;28;1136;-33
2023/10/05 01:48:26;;;;;;;;;;;;;;;27.24;33.26;101481.00;5075639;28;1968;-34
2023/10/05 01:50:52;;;;;;;;;;;;;;;27.28;32.97;101480.72;5075461;28;1078;-29
2023/10/05 01:53:18;;;;;;;;;;;;;;;27.28;33.15;101484.22;5078631;28;1115;-30
2023/10/05 01:55:45;;;;;;;;;;;;;;;27.28;33.11;101484.22;5079351;28;1125;-28
2023/10/05 01:58:22;;;;;;;;;;;;;;;27.32;32.97;101485.59;5078484;28;1179;-30
2023/10/05 02:00:48;;;;;;;;;;;;;;;27.29;32.94;101485.09;5078242;28;1212;-31
2023/10/05 02:03:14;;;;;;;;;;;;;;;27.26;32.93;101491.66;5080047;28;1102;-32
2023/10/05 02:05:39;;;;;;;;;;;;;;;27.42;32.63;101498.09;5079302;28;1125;-30
2023/10/05 02:08:05;;;;;;;;;;;;;;;27.30;32.84;101494.88;5078069;28;1910;-29
2023/10/05 02:10:39;;;;;;;;;;;;;;;27.23;33.23;101491.97;5079594;28;1135;-31
2023/10/05 02:13:08;;;;;;;;;;;;;;;27.26;33.08;101492.50;5077698;28;1216;-30
2023/10/05 02:15:39;;;;;;;;;;;;;;;27.31;32.93;101496.56;5079131;28;1171;-32
2023/10/05 02:18:08;;;;;;;;;;;;;;;27.26;32.72;101495.19;5112140;28;1116;-31
2023/10/05 02:22:59;;;;;;;;;;;;;;;27.24;32.99;101491.81;5111535;28;1054;-32
2023/10/05 02:25:33;;;;;;;;;;;;;;;27.28;33.25;101491.50;5077518;28;1008;-29
2023/10/05 02:28:00;;;;;;;;;;;;;;;27.35;32.78;101495.22;5078951;28;1973;-32
2023/10/05 02:30:27;;;;;;;;;;;;;;;27.22;33.08;101507.38;5079240;28;1050;-30
2023/10/05 02:32:54;;;;;;;;;;;;;;;27.22;32.79;101490.31;5077708;28;1153;-32
2023/10/05 02:35:29;;;;;;;;;;;;;;;27.26;33.04;101497.06;5077762;28;1243;-34
2023/10/05 02:37:54;;;;;;;;;;;;;;;27.27;33.23;101498.75;5078427;28;1012;-29
2023/10/05 02:40:27;;;;;;;;;;;;;;;27.25;32.96;101504.34;5079053;28;1073;-30
2023/10/05 02:42:54;;;;;;;;;;;;;;;27.16;33.19;101505.31;5077509;28;1217;-30
2023/10/05 02:45:21;;;;;;;;;;;;;;;27.33;32.69;101502.63;5077498;28;1108;-30
2023/10/05 02:47:48;;;;;;;;;;;;;;;27.28;33.10;101507.72;5077120;28;1906;-30
2023/10/05 02:50:14;;;;;;;;;;;;;;;27.18;33.02;101502.44;5076955;28;893;-31
2023/10/05 02:52:40;;;;;;;;;;;;;;;27.24;32.86;101502.63;5077661;28;1183;-35
2023/10/05 02:55:07;;;;;;;;;;;;;;;27.24;32.72;101505.31;5078745;28;1130;-29
2023/10/05 02:57:33;;;;;;;;;;;;;;;27.32;33.23;101511.75;5076745;28;1060;-32
2023/10/05 02:59:59;;;;;;;;;;;;;;;27.34;33.02;101502.47;5078319;28;1043;-33
2023/10/05 03:02:25;;;;;;;;;;;;;;;27.24;32.78;101513.41;5076903;28;1316;-29
2023/10/05 03:05:02;;;;;;;;;;;;;;;27.21;33.26;101518.34;5077022;28;1046;-30
2023/10/05 03:07:28;;;;;;;;;;;;;;;27.26;32.86;101516.81;5066567;28;1977;-30
2023/10/05 03:09:59;;;;;;;;;;;;;;;27.22;33.02;101522.72;5077087;28;1336;-29
2023/10/05 03:12:27;;;;;;;;;;;;;;;27.17;32.99;101512.41;5110594;27;1227;-33
2023/10/05 03:14:56;;;;;;;;;;;;;;;27.25;33.18;101519.69;5099157;28;1125;-29
2023/10/05 03:17:26;;;;;;;;;;;;;;;26.40;34.44;101517.63;5076755;28;1303;-35
2023/10/05 03:19:52;;;;;;;;;;;;;;;25.45;36.51;101513.63;5076963;28;1137;-32
2023/10/05 03:22:23;;;;;;;;;;;;;;;25.44;36.51;101520.84;5078210;28;1565;-31
2023/10/05 03:24:49;;;;;;;;;;;;;;;25.43;36.58;101511.06;5076403;28;1124;-30
2023/10/05 03:27:16;;;;;;;;;;;;;;;25.29;36.73;101525.06;5060320;28;1972;-31
2023/10/05 03:29:45;;;;;;;;;;;;;;;25.24;36.54;101522.81;5077047;28;1122;-31
2023/10/05 03:32:13;;;;;;;;;;;;;;;25.10;36.96;101526.03;5076269;28;1132;-34
2023/10/05 03:34:42;;;;;;;;;;;;;;;25.17;37.14;101529.81;5085869;28;1070;-36
2023/10/05 03:37:10;;;;;;;;;;;;;;;25.03;37.62;101523.09;5088698;28;1309;-31
2023/10/05 03:39:48;;;;;;;;;;;;;;;24.97;37.71;101532.63;5077633;28;1135;-30
2023/10/05 03:42:13;;;;;;;;;;;;;;;24.89;38.20;101532.47;5077514;28;1015;-31
2023/10/05 03:44:39;;;;;;;;;;;;;;;24.90;38.16;101531.47;5077512;28;1205;-31
2023/10/05 03:47:05;;;;;;;;;;;;;;;24.92;38.46;101532.22;5076541;28;1902;-32
2023/10/05 03:49:30;;;;;;;;;;;;;;;25.02;38.21;101534.84;5075854;28;1157;-32
2023/10/05 03:51:56;;;;;;;;;;;;;;;24.93;38.44;101526.69;5109715;28;1166;-29
2023/10/05 03:54:24;;;;;;;;;;;;;;;25.06;38.87;101529.00;5076849;28;1152;-32
2023/10/05 03:56:50;;;;;;;;;;;;;;;25.41;38.10;101525.69;5085757;28;1426;-31
2023/10/05 03:59:17;;;;;;;;;;;;;;;25.67;37.30;101525.78;5075702;28;1307;-36
2023/10/05 04:01:48;;;;;;;;;;;;;;;25.59;36.82;101536.47;5075707;28;1439;-32
2023/10/05 04:04:21;;;;;;;;;;;;;;;25.78;36.75;101532.81;5075782;28;1268;-31
2023/10/05 04:06:50;;;;;;;;;;;;;;;25.97;37.27;101530.09;5074269;28;1151;-33
2023/10/05 04:09:16;;;;;;;;;;;;;;;26.00;36.54;101545.97;5075965;28;1993;-35
2023/10/05 04:11:45;;;;;;;;;;;;;;;25.97;36.74;101530.97;5076702;28;1129;-31
2023/10/05 04:14:11;;;;;;;;;;;;;;;25.77;38.26;101533.81;5076903;28;1113;-30
2023/10/05 04:16:37;;;;;;;;;;;;;;;25.71;37.76;101536.28;5076862;28;1205;-29
2023/10/05 04:19:05;;;;;;;;;;;;;;;25.89;37.06;101541.66;5076536;28;1027;-33
2023/10/05 04:21:31;;;;;;;;;;;;;;;25.77;36.58;101541.91;5077352;28;1026;-28
2023/10/05 04:23:59;;;;;;;;;;;;;;;25.97;37.39;101546.28;5069653;28;1379;-29
2023/10/05 04:26:33;;;;;;;;;;;;;;;26.25;36.41;101538.91;5072015;28;1423;-30
2023/10/05 04:28:59;;;;;;;;;;;;;;;26.58;37.19;101546.38;5076427;28;1975;-29
2023/10/05 04:31:27;;;;;;;;;;;;;;;26.56;36.32;101552.97;5076902;28;1090;-29
2023/10/05 04:33:54;;;;;;;;;;;;;;;26.78;36.02;101549.69;5075884;28;1702;-28
2023/10/05 04:36:22;;;;;;;;;;;;;;;26.84;35.54;101545.50;5076732;28;1026;-26
2023/10/05 04:38:53;;;;;;;;;;;;;;;26.92;35.25;101549.25;5076613;28;872;-28
2023/10/05 04:41:19;;;;;;;;;;;;;;;27.16;35.04;101542.28;5076839;28;1073;-26
2023/10/05 04:43:47;;;;;;;;;;;;;;;26.69;35.46;101549.81;5076588;28;1035;-28
2023/10/05 04:46:17;;;;;;;;;;;;;;;26.76;35.55;101546.31;5076572;28;1339;-27
2023/10/05 04:48:55;;;;;;;;;;;;;;;26.85;35.67;101544.50;5076191;28;1963;-26
2023/10/05 04:51:22;;;;;;;;;;;;;;;27.11;35.02;101559.81;5076374;28;853;-30
2023/10/05 04:53:52;;;;;;;;;;;;;;;27.09;35.06;101563.69;5076464;28;1066;-30
2023/10/05 04:56:28;;;;;;;;;;;;;;;27.14;34.95;101566.75;5076140;28;1491;-32
2023/10/05 04:59:23;;;;;;;;;;;;;;;26.98;34.96;101560.25;5074404;28;1273;-33
2023/10/05 05:04:27;;;;;;;;;;;;;;;26.88;35.92;101559.53;5076684;28;1126;-32
2023/10/05 05:06:56;;;;;;;;;;;;;;;26.95;35.56;101555.16;5073219;28;1170;-30
2023/10/05 05:09:21;;;;;;;;;;;;;;;26.99;35.60;101561.94;5082549;28;1910;-30
2023/10/05 05:11:47;;;;;;;;;;;;;;;27.11;35.47;101572.50;5075944;28;1158;-32
2023/10/05 05:14:13;;;;;;;;;;;;;;;26.98;35.42;101573.75;5075646;28;1284;-34
2023/10/05 05:16:40;;;;;;;;;;;;;;;26.86;35.52;101578.59;5076563;28;1074;-30
2023/10/05 05:19:06;;;;;;;;;;;;;;;26.96;35.24;101580.34;5075939;28;1065;-31
2023/10/05 05:21:34;;;;;;;;;;;;;;;26.98;35.18;101576.44;5075996;28;1081;-27
2023/10/05 05:24:00;;;;;;;;;;;;;;;27.01;35.31;101577.97;5075590;28;1062;-32
2023/10/05 05:26:25;;;;;;;;;;;;;;;27.06;35.04;101583.75;5075773;28;1151;-29
2023/10/05 05:28:52;;;;;;;;;;;;;;;27.08;35.36;101589.00;5079909;28;1994;-27
2023/10/05 05:31:18;;;;;;;;;;;;;;;27.19;34.83;101593.28;5079993;28;1101;-29
2023/10/05 05:33:44;;;;;;;;;;;;;;;27.18;35.16;101587.03;5080039;28;1126;-31
2023/10/05 05:36:13;;;;;;;;;;;;;;;27.34;35.47;101596.19;5079679;28;1073;-26
2023/10/05 05:38:39;;;;;;;;;;;;;;;27.17;35.47;101600.69;5079427;28;1123;-27
2023/10/05 05:41:11;;;;;;;;;;;;;;;27.59;34.99;101598.97;5076712;28;1418;-30
2023/10/05 05:43:39;;;;;;;;;;;;;;;27.57;34.20;101604.53;5079628;28;1078;-28
2023/10/05 05:46:09;;;;;;;;;;;;;;;27.53;34.66;101600.47;5080077;28;988;-29
2023/10/05 05:48:35;;;;;;;;;;;;;;;27.51;34.78;101606.03;5080390;28;1917;-33
2023/10/05 05:51:06;;;;;;;;;;;;;;;27.35;35.58;101612.25;5078138;28;1339;-29
2023/10/05 05:53:32;;;;;;;;;;;;;;;27.61;35.88;101605.06;5079403;28;1077;-30
2023/10/05 05:56:01;;;;;;;;;;;;;;;27.40;35.97;101606.34;5077010;28;964;-31
2023/10/05 05:58:26;;;;;;;;;;;;;;;27.42;34.94;101612.44;5079866;28;1162;-29
2023/10/05 06:00:52;;;;;;;;;;;;;;;27.39;35.26;101616.28;5079453;28;1140;-33
2023/10/05 06:03:18;;;;;;;;;;;;;;;27.18;36.67;101615.88;5078416;28;1118;-28
2023/10/05 06:05:43;;;;;;;;;;;;;;;27.42;36.02;101609.72;5079845;28;1390;-31
2023/10/05 06:08:09;;;;;;;;;;;;;;;27.54;35.57;101617.53;5079418;28;1917;-31
2023/10/05 06:10:35;;;;;;;;;;;;;;;27.63;35.11;101622.78;5079591;28;1158;-31
2023/10/05 06:13:01;;;;;;;;;;;;;;;27.69;35.27;101620.47;5079937;28;1050;-32
2023/10/05 06:15:27;;;;;;;;;;;;;;;27.63;35.27;101624.63;5079339;28;872;-31
2023/10/05 06:17:52;;;;;;;;;;;;;;;27.77;34.71;101622.34;5077858;28;1164;-34
2023/10/05 06:20:18;;;;;;;;;;;;;;;27.79;34.91;101628.44;5075649;28;1316;-31
2023/10/05 06:22:44;;;;;;;;;;;;;;;27.91;34.47;101634.38;5079236;28;1198;-33
2023/10/05 06:25:16;;;;;;;;;;;;;;;27.86;34.62;101637.56;5079298;28;1023;-33
2023/10/05 06:27:43;;;;;;;;;;;;;;;27.88;34.65;101632.81;5078975;28;1914;-30
2023/10/05 06:30:09;;;;;;;;;;;;;;;27.92;34.37;101634.19;5078953;28;1082;-30
2023/10/05 06:32:35;;;;;;;;;;;;;;;27.95;34.54;101630.31;5090783;28;1241;-35
2023/10/05 06:35:02;;;;;;;;;;;;;;;28.00;35.11;101633.34;5079077;28;1062;-29
2023/10/05 06:37:27;;;;;;;;;;;;;;;28.05;34.77;101635.53;5079130;28;1117;-33
2023/10/05 06:39:53;;;;;;;;;;;;;;;28.10;34.57;101636.75;5078626;28;852;-32
2023/10/05 06:42:19;;;;;;;;;;;;;;;28.04;34.38;101640.13;5078794;28;1086;-34
2023/10/05 06:44:45;;;;;;;;;;;;;;;28.29;34.09;101640.13;5086567;28;1271;-29
2023/10/05 06:47:18;;;;;;;;;;;;;;;28.07;34.48;101637.09;5085762;28;1917;-32
2023/10/05 06:49:44;;;;;;;;;;;;;;;28.03;34.63;101638.41;5099153;28;1049;-31
2023/10/05 06:52:09;;;;;;;;;;;;;;;27.90;34.47;101648.88;5097710;28;924;-35
2023/10/05 06:54:35;;;;;;;;;;;;;;;27.91;34.33;101653.28;5098831;28;1251;-33
2023/10/05 06:57:00;;;;;;;;;;;;;;;27.86;33.98;101651.91;5098450;28;1049;-34
2023/10/05 06:59:26;;;;;;;;;;;;;;;27.83;35.08;101652.25;5088687;28;1133;-32
2023/10/05 07:01:52;;;;;;;;;;;;;;;27.43;34.57;101654.66;5094934;28;1054;-30
2023/10/05 07:04:24;;;;;;;;;;;;;;;27.48;33.79;101649.59;5089942;28;936;-30
2023/10/05 07:06:50;;;;;;;;;;;;;;;27.42;33.76;101650.25;5094201;28;1112;-34
2023/10/05 07:09:16;;;;;;;;;;;;;;;26.58;32.57;101650.78;5089089;28;1987;-32
2023/10/05 07:11:41;;;;;;;;;;;;;;;26.59;33.83;101661.41;5085172;28;1354;-29
2023/10/05 07:14:09;;;;;;;;;;;;;;;27.48;32.99;101663.13;5098161;28;1093;-30
2023/10/05 07:16:35;;;;;;;;;;;;;;;27.95;32.68;101660.91;5090844;28;920;-33
2023/10/05 07:19:00;;;;;;;;;;;;;;;28.22;32.61;101667.03;5089618;28;1094;-31
2023/10/05 07:21:26;;;;;;;;;;;;;;;28.03;33.41;101664.63;5084501;28;1066;-31
2023/10/05 07:23:51;;;;;;;;;;;;;;;28.29;32.49;101661.78;5067432;28;1276;-29
2023/10/05 07:26:17;;;;;;;;;;;;;;;28.46;32.43;101657.22;5079586;28;1213;-32
2023/10/05 07:28:43;;;;;;;;;;;;;;;27.87;32.46;101658.19;5081726;28;1976;-31
2023/10/05 07:31:09;;;;;;;;;;;;;;;28.06;32.49;101657.00;5073844;28;1106;-31
2023/10/05 07:33:35;;;;;;;;;;;;;;;28.24;32.52;101650.63;5091173;28;1003;-30
2023/10/05 07:36:02;;;;;;;;;;;;;;;28.33;32.38;101651.47;5078326;28;1027;-29
2023/10/05 07:38:28;;;;;;;;;;;;;;;28.40;31.89;101651.66;5092434;28;1086;-31
2023/10/05 07:40:54;;;;;;;;;;;;;;;27.71;30.69;101649.00;5090734;28;1153;-28
2023/10/05 07:43:19;;;;;;;;;;;;;;;28.44;30.64;101651.16;5078271;28;1284;-27
2023/10/05 07:45:45;;;;;;;;;;;;;;;28.72;30.89;101655.34;5077598;28;1123;-27
2023/10/05 07:48:11;;;;;;;;;;;;;;;27.75;29.34;101653.09;5077777;28;1968;-27
2023/10/05 07:50:37;;;;;;;;;;;;;;;28.47;30.12;101652.66;5077014;28;1069;-29
2023/10/05 07:53:03;;;;;;;;;;;;;;;28.37;30.20;101650.13;5077798;28;1077;-31
2023/10/05 07:55:28;;;;;;;;;;;;;;;27.47;29.77;101647.06;5077439;28;1023;-29
2023/10/05 07:57:54;;;;;;;;;;;;;;;27.81;29.22;101643.47;5077499;28;1063;-30
2023/10/05 08:00:20;;;;;;;;;;;;;;;27.39;28.70;101642.50;5077300;28;1217;-29
2023/10/05 08:02:45;;;;;;;;;;;;;;;27.10;29.42;101643.69;5077345;28;1093;-33
2023/10/05 08:05:15;;;;;;;;;;;;;;;28.10;29.98;101650.28;5077509;28;1097;-29
2023/10/05 08:07:40;;;;;;;;;;;;;;;28.50;30.25;101649.63;5075721;28;1906;-31
2023/10/05 08:10:06;;;;;;;;;;;;;;;27.98;27.91;101646.19;5077127;28;1106;-30
2023/10/05 08:12:32;;;;;;;;;;;;;;;27.95;27.69;101654.63;5077026;28;1032;-30
2023/10/05 08:14:57;;;;;;;;;;;;;;;27.84;27.52;101650.41;5076320;28;1023;-31
2023/10/05 08:17:23;;;;;;;;;;;;;;;28.38;27.24;101649.13;5076849;28;1015;-30
2023/10/05 08:19:49;;;;;;;;;;;;;;;28.87;29.28;101651.91;5077127;28;1054;-30
2023/10/05 08:22:17;;;;;;;;;;;;;;;28.74;29.28;101647.91;5080225;28;1217;-28
2023/10/05 08:24:43;;;;;;;;;;;;;;;28.83;29.45;101654.97;5081359;28;1069;-31
2023/10/05 08:27:13;;;;;;;;;;;;;;;28.70;30.15;101650.09;5075498;28;1980;-32
2023/10/05 08:29:42;;;;;;;;;;;;;;;28.78;29.88;101656.53;5076480;28;1028;-34
2023/10/05 08:32:13;;;;;;;;;;;;;;;28.80;29.97;101659.88;5076858;28;1074;-29
2023/10/05 08:34:42;;;;;;;;;;;;;;;28.86;29.80;101656.50;5076136;28;2265;-32
2023/10/05 08:37:08;;;;;;;;;;;;;;;28.94;29.97;101655.63;5071643;28;1791;-31
2023/10/05 08:39:37;;;;;;;;;;;;;;;29.07;29.76;101663.25;5075729;28;1825;-27
2023/10/05 08:42:06;;;;;;;;;;;;;;;29.24;29.27;101652.34;5075961;28;1891;-32
2023/10/05 08:44:44;;;;;;;;;;;;;;;29.20;29.54;101650.00;5075746;28;1870;-32
2023/10/05 08:47:12;;;;;;;;;;;;;;;29.30;29.54;101657.91;5068009;28;1977;-30
2023/10/05 08:49:38;;;;;;;;;;;;;;;29.28;29.44;101649.09;5075637;28;2033;-29
2023/10/05 08:52:13;;;;;;;;;;;;;;;29.23;29.60;101654.19;5075991;28;1850;-29
2023/10/05 08:54:38;;;;;;;;;;;;;;;29.31;29.72;101656.88;5074712;28;1036;-31
2023/10/05 08:57:10;;;;;;;;;;;;;;;29.43;29.63;101656.47;5076136;28;1124;-31
2023/10/05 08:59:39;;;;;;;;;;;;;;;29.31;29.92;101653.34;5076529;28;1114;-30
2023/10/05 09:02:07;;;;;;;;;;;;;;;29.32;29.85;101655.03;5075057;28;1132;-30
2023/10/05 09:04:47;;;;;;;;;;;;;;;29.20;30.47;101655.41;5075192;28;1003;-34
2023/10/05 09:07:27;;;;;;;;;;;;;;;29.49;29.68;101661.22;5076116;28;1981;-34
2023/10/05 09:09:54;;;;;;;;;;;;;;;29.74;29.50;101662.97;5076078;28;1063;-27
2023/10/05 09:12:33;;;;;;;;;;;;;;;29.87;29.25;101668.66;5076171;28;1298;-32
2023/10/05 09:15:22;;;;;;;;;;;;;;;29.92;29.09;101658.09;5075979;28;1106;-27
2023/10/05 09:18:17;;;;;;;;;;;;;;;29.99;29.14;101662.81;5069623;28;1015;-30
2023/10/05 09:20:42;;;;;;;;;;;;;;;29.92;29.49;101666.25;5065030;28;2408;-32
2023/10/05 09:23:09;;;;;;;;;;;;;;;30.18;29.44;101664.16;5075333;28;1508;-28
2023/10/05 09:25:46;;;;;;;;;;;;;;;30.03;29.11;101662.25;5075473;28;1115;-30
2023/10/05 09:28:14;;;;;;;;;;;;;;;29.88;29.77;101669.50;5074963;28;1914;-32
2023/10/05 09:30:46;;;;;;;;;;;;;;;30.01;29.38;101666.19;5075271;28;1093;-33
2023/10/05 09:33:18;;;;;;;;;;;;;;;29.97;29.18;101662.13;5087465;28;1062;-28
2023/10/05 09:35:46;;;;;;;;;;;;;;;30.01;29.25;101658.88;5075524;28;1054;-28
2023/10/05 09:38:17;;;;;;;;;;;;;;;29.89;28.73;101655.75;5075262;28;1046;-29
2023/10/05 09:40:47;;;;;;;;;;;;;;;29.99;28.79;101660.09;5073987;28;1011;-29
2023/10/05 09:43:13;;;;;;;;;;;;;;;29.85;27.79;101654.41;5073054;28;2638;-28
2023/10/05 09:45:38;;;;;;;;;;;;;;;30.01;29.67;101655.34;5073988;28;1080;-30
2023/10/05 09:48:04;;;;;;;;;;;;;;;30.29;29.36;101652.09;5075440;28;1973;-30
2023/10/05 09:50:29;;;;;;;;;;;;;;;30.37;28.98;101652.00;5073697;28;1210;-28
2023/10/05 09:52:59;;;;;;;;;;;;;;;30.29;29.49;101657.50;5063999;28;2538;-29
2023/10/05 09:55:24;;;;;;;;;;;;;;;30.30;29.26;101646.47;5114779;28;1157;-30
2023/10/05 09:57:56;;;;;;;;;;;;;;;30.38;29.55;101640.13;5075540;28;1042;-30
2023/10/05 10:00:47;;;;;;;;;;;;;;;30.41;29.51;101641.63;5075447;28;1130;-28
2023/10/05 10:03:14;;;;;;;;;;;;;;;30.30;29.44;101646.47;5066520;28;1006;-29
2023/10/05 10:05:59;;;;;;;;;;;;;;;30.35;29.47;101635.06;5061466;28;952;-29
2023/10/05 10:08:26;;;;;;;;;;;;;;;30.42;29.49;101630.59;5075019;28;1910;-29
2023/10/05 10:11:09;;;;;;;;;;;;;;;30.33;29.71;101634.41;5074750;28;1037;-30
2023/10/05 10:13:37;;;;;;;;;;;;;;;30.54;29.24;101627.44;5076158;28;1050;-31
2023/10/05 10:16:21;;;;;;;;;;;;;;;30.49;29.29;101628.00;5079265;28;1217;-31
2023/10/05 10:19:03;;;;;;;;;;;;;;;30.20;29.83;101624.16;5078893;28;1108;-29
2023/10/05 10:21:35;;;;;;;;;;;;;;;30.37;30.33;101624.03;5085714;28;1864;-31
2023/10/05 10:24:03;;;;;;;;;;;;;;;30.49;29.82;101622.56;5078742;28;1027;-34
2023/10/05 10:26:29;;;;;;;;;;;;;;;30.50;29.46;101607.09;5078913;28;1109;-32
2023/10/05 10:31:22;;;;;;;;;;;;;;;30.39;30.37;101605.69;5078576;28;990;-31
2023/10/05 10:33:51;;;;;;;;;;;;;;;30.37;30.41;101605.88;5078485;28;1061;-30
2023/10/05 10:36:22;;;;;;;;;;;;;;;30.43;30.71;101591.56;5077397;28;1063;-31
2023/10/05 10:38:51;;;;;;;;;;;;;;;30.52;30.14;101594.19;5086177;28;1042;-27
2023/10/05 10:41:17;;;;;;;;;;;;;;;30.48;30.23;101588.28;5077290;28;1019;-28
2023/10/05 10:43:55;;;;;;;;;;;;;;;30.63;30.16;101582.03;5073497;28;1082;-31
2023/10/05 10:46:21;;;;;;;;;;;;;;;30.68;30.01;101585.00;5045854;28;1008;-32
2023/10/05 10:48:53;;;;;;;;;;;;;;;30.78;29.64;101579.31;5058287;28;1986;-29
2023/10/05 10:51:20;;;;;;;;;;;;;;;30.73;29.84;101573.59;5057791;28;2258;-28
2023/10/05 10:53:46;;;;;;;;;;;;;;;30.72;29.86;101563.75;5057611;28;848;-28
2023/10/05 10:56:21;;;;;;;;;;;;;;;30.74;29.93;101572.56;5040458;28;1082;-32
2023/10/05 10:58:56;;;;;;;;;;;;;;;30.66;30.50;101566.19;5041823;28;1140;-33
2023/10/05 11:01:28;;;;;;;;;;;;;;;30.96;30.70;101572.66;5057953;28;1052;-31
2023/10/05 11:03:55;;;;;;;;;;;;;;;31.15;30.13;101565.78;5057776;28;1162;-31
2023/10/05 11:06:23;;;;;;;;;;;;;;;31.08;30.21;101562.16;5057515;28;1006;-33
2023/10/05 11:08:49;;;;;;;;;;;;;;;30.98;30.51;101560.56;5057313;28;1910;-29
2023/10/05 11:11:15;;;;;;;;;;;;;;;31.00;30.50;101553.06;5057788;28;1039;-29
2023/10/05 11:14:06;;;;;;;;;;;;;;;31.07;30.61;101555.88;5057144;28;1206;-27
2023/10/05 11:16:45;;;;;;;;;;;;;;;30.81;30.79;101542.81;5056751;28;1381;-30
2023/10/05 11:19:20;;;;;;;;;;;;;;;30.97;30.54;101544.44;5057513;28;1074;-32
2023/10/05 11:21:46;;;;;;;;;;;;;;;30.86;31.08;101538.50;5057242;28;2476;-30
2023/10/05 11:24:15;;;;;;;;;;;;;;;30.55;31.52;101542.22;5067300;28;1348;-30
2023/10/05 11:29:28;;;;;;;;;;;;;;;30.50;31.45;101531.06;5047467;28;1917;-29
2023/10/05 11:32:01;;;;;;;;;;;;;;;30.83;31.08;101530.69;5057369;28;1143;-33
2023/10/05 11:34:38;;;;;;;;;;;;;;;30.28;30.21;101533.72;5049386;28;1337;-31
2023/10/05 11:37:11;;;;;;;;;;;;;;;29.00;29.31;101526.81;5045637;28;1296;-30
2023/10/05 11:39:39;;;;;;;;;;;;;;;29.92;30.27;101527.91;5055516;28;1102;-29
2023/10/05 11:42:05;;;;;;;;;;;;;;;30.42;30.79;101523.88;5056841;28;1086;-28
2023/10/05 11:44:30;;;;;;;;;;;;;;;30.75;30.84;101525.34;5047143;28;1457;-34
2023/10/05 11:46:57;;;;;;;;;;;;;;;30.75;30.78;101528.06;5077662;28;1190;-28
2023/10/05 11:49:30;;;;;;;;;;;;;;;30.68;30.74;101528.81;5077002;28;1965;-29
2023/10/05 11:52:11;;;;;;;;;;;;;;;30.65;30.89;101523.78;5075536;28;1848;-38
2023/10/05 11:54:39;;;;;;;;;;;;;;;30.53;31.22;101517.16;5076343;28;876;-30
2023/10/05 11:57:05;;;;;;;;;;;;;;;30.41;31.91;101514.06;5077907;28;1286;-32
2023/10/05 11:59:39;;;;;;;;;;;;;;;30.61;31.29;101514.34;5075337;28;1160;-30
2023/10/05 12:02:08;;;;;;;;;;;;;;;30.67;31.67;101508.13;5078464;28;1067;-31
2023/10/05 12:04:34;;;;;;;;;;;;;;;30.66;31.91;101511.88;5085614;28;1030;-30
2023/10/05 12:07:00;;;;;;;;;;;;;;;30.74;31.90;101510.94;5076625;28;1151;-31
2023/10/05 12:09:36;;;;;;;;;;;;;;;30.59;32.42;101513.66;5076636;28;1981;-33
2023/10/05 12:12:10;;;;;;;;;;;;;;;30.51;32.26;101503.72;5077159;28;1220;-33
2023/10/05 12:14:36;;;;;;;;;;;;;;;30.33;32.90;101506.81;5076171;28;1058;-35
2023/10/05 12:17:01;;;;;;;;;;;;;;;30.38;32.53;101506.28;5076967;28;1127;-31
2023/10/05 12:19:30;;;;;;;;;;;;;;;30.46;32.62;101497.19;5076449;28;1058;-31
2023/10/05 12:21:57;;;;;;;;;;;;;;;30.35;32.77;101503.94;5080208;28;2474;-32
2023/10/05 12:24:22;;;;;;;;;;;;;;;30.19;33.08;101497.63;5076730;28;1026;-31
2023/10/05 12:26:50;;;;;;;;;;;;;;;30.10;33.27;101498.72;5076176;28;1030;-34
2023/10/05 12:29:16;;;;;;;;;;;;;;;30.18;33.35;101495.94;5076139;28;1914;-32
2023/10/05 12:31:45;;;;;;;;;;;;;;;30.27;33.22;101492.16;5076451;28;1034;-32
2023/10/05 12:34:23;;;;;;;;;;;;;;;30.13;33.56;101493.78;5076270;28;1086;-33
2023/10/05 12:36:49;;;;;;;;;;;;;;;30.18;33.25;101499.50;5076279;28;1018;-35
2023/10/05 12:39:17;;;;;;;;;;;;;;;30.12;33.58;101492.09;5076370;28;1080;-29
2023/10/05 12:41:43;;;;;;;;;;;;;;;29.98;33.90;101495.66;5075862;28;1061;-34
2023/10/05 12:44:13;;;;;;;;;;;;;;;30.02;33.78;101488.81;5076541;28;1073;-30
2023/10/05 12:46:41;;;;;;;;;;;;;;;30.06;33.73;101482.81;5076467;28;1031;-29
2023/10/05 12:49:10;;;;;;;;;;;;;;;30.09;33.87;101484.34;5075847;28;1984;-33
2023/10/05 12:51:36;;;;;;;;;;;;;;;30.18;34.38;101493.22;5077998;28;1807;-30
2023/10/05 12:54:28;;;;;;;;;;;;;;;30.29;33.89;101490.09;5075594;28;1233;-31
2023/10/05 12:56:49;;;;;;;;;;;;;;;30.21;34.38;101492.91;5075777;28;1580;-32
2023/10/05 12:59:17;;;;;;;;;;;;;;;30.06;35.10;101492.84;5075994;28;1095;-30
2023/10/05 13:01:43;;;;;;;;;;;;;;;30.26;34.78;101495.88;5076026;28;1038;-34
2023/10/05 13:04:09;;;;;;;;;;;;;;;30.40;34.30;101493.34;5076190;28;1126;-31
2023/10/05 13:06:35;;;;;;;;;;;;;;;30.18;34.99;101487.78;5075725;28;1101;-30
2023/10/05 13:09:03;;;;;;;;;;;;;;;30.03;35.14;101483.19;5075667;28;1975;-31
2023/10/05 13:11:29;;;;;;;;;;;;;;;30.03;35.07;101487.81;5075654;28;1103;-27